Time;durP1;ratioP1;P1;durP2;ratioP2;P2;SDS_P1;SDS_P2;PMS_P1;PMS_P2;Temp;Humidity;BMP_temperature;BMP_pressure;BME280_temperature;BME280_humidity;BME280_pressure;Samples;Min_cycle;Max_cycle;Signal;HPM_P1;HPM_P2
2021/04/29 00:01:26;;;;;;;12.10;9.05;;;8.40;92.60;;;;;;5027927;28;20492;-67
2021/04/29 00:03:51;;;;;;;16.23;9.75;;;8.40;92.60;;;;;;5028592;28;20037;-68
2021/04/29 00:06:17;;;;;;;14.05;9.38;;;8.50;92.60;;;;;;5028688;28;20025;-67
2021/04/29 00:08:43;;;;;;;15.95;9.90;;;8.40;92.70;;;;;;5028551;28;20068;-68
2021/04/29 00:11:10;;;;;;;12.25;9.85;;;8.40;92.80;;;;;;5022711;28;20401;-67
2021/04/29 00:13:36;;;;;;;12.02;9.20;;;8.40;92.80;;;;;;5028845;28;20033;-68
2021/04/29 00:16:03;;;;;;;17.48;9.18;;;8.50;92.90;;;;;;5027745;28;20045;-67
2021/04/29 00:18:29;;;;;;;9.98;8.75;;;8.50;92.80;;;;;;5028756;28;20037;-67
2021/04/29 00:20:55;;;;;;;11.90;9.32;;;8.50;92.70;;;;;;5029036;28;20033;-68
2021/04/29 00:23:25;;;;;;;14.48;8.63;;;8.50;92.70;;;;;;5028805;28;20038;-68
2021/04/29 00:25:51;;;;;;;12.23;8.93;;;8.60;92.50;;;;;;5024223;28;20064;-67
2021/04/29 00:28:17;;;;;;;10.75;8.73;;;8.60;92.60;;;;;;5030582;28;20037;-68
2021/04/29 00:30:43;;;;;;;13.50;9.65;;;8.70;92.40;;;;;;5032048;28;20092;-68
2021/04/29 00:33:09;;;;;;;10.63;8.55;;;8.80;92.40;;;;;;5030965;28;20037;-68
2021/04/29 00:35:34;;;;;;;9.77;8.27;;;8.70;92.40;;;;;;5028479;28;20042;-68
2021/04/29 00:38:00;;;;;;;12.30;9.30;;;8.70;92.40;;;;;;5031566;28;20099;-68
2021/04/29 00:40:26;;;;;;;10.80;8.52;;;8.70;92.40;;;;;;5030636;28;20046;-68
2021/04/29 00:42:52;;;;;;;11.80;8.43;;;8.70;92.20;;;;;;5031339;28;20033;-68
2021/04/29 00:45:18;;;;;;;10.05;8.93;;;8.70;92.30;;;;;;5030794;28;20045;-67
2021/04/29 00:47:47;;;;;;;10.43;8.52;;;8.70;92.20;;;;;;5030584;28;20495;-68
2021/04/29 00:50:13;;;;;;;10.90;8.55;;;8.70;92.20;;;;;;5030315;28;20064;-68
2021/04/29 00:52:39;;;;;;;17.60;9.88;;;8.80;92.30;;;;;;5030598;28;20065;-68
2021/04/29 00:55:05;;;;;;;9.10;8.07;;;8.70;92.20;;;;;;5031900;28;20041;-67
2021/04/29 00:57:32;;;;;;;13.95;9.82;;;8.70;92.40;;;;;;5029781;28;20037;-68
2021/04/29 00:59:59;;;;;;;12.50;9.25;;;8.70;92.60;;;;;;5027840;28;20570;-68
2021/04/29 01:02:26;;;;;;;13.40;9.73;;;8.60;92.50;;;;;;5030483;28;20041;-68
2021/04/29 01:05:18;;;;;;;14.07;8.88;;;8.60;92.70;;;;;;5030138;28;20128;-67
2021/04/29 01:07:51;;;;;;;14.00;9.13;;;8.50;92.90;;;;;;5025794;28;20497;-67
2021/04/29 01:10:27;;;;;;;13.80;9.45;;;8.50;92.80;;;;;;5027821;28;20415;-68
2021/04/29 01:13:01;;;;;;;11.38;9.02;;;8.50;92.90;;;;;;5029863;28;20052;-67
2021/04/29 01:15:27;;;;;;;12.48;9.48;;;8.50;93.00;;;;;;5030415;28;20128;-67
2021/04/29 01:17:54;;;;;;;15.30;9.60;;;8.40;93.00;;;;;;5029196;28;20034;-68
2021/04/29 01:20:41;;;;;;;12.20;9.40;;;8.60;93.10;;;;;;5030489;28;20046;-68
2021/04/29 01:23:24;;;;;;;12.82;9.13;;;8.50;93.20;;;;;;5027908;28;20048;-68
2021/04/29 01:25:57;;;;;;;15.05;9.60;;;8.50;93.30;;;;;;5027419;28;20045;-68
2021/04/29 01:28:23;;;;;;;19.00;9.75;;;8.40;93.50;;;;;;5029999;28;20048;-68
2021/04/29 01:30:50;;;;;;;11.10;9.27;;;8.40;93.70;;;;;;5028651;28;20542;-68
2021/04/29 01:33:16;;;;;;;15.40;10.00;;;8.40;93.70;;;;;;5027552;28;20116;-68
2021/04/29 01:35:42;;;;;;;13.38;8.88;;;8.40;93.90;;;;;;5029724;28;20033;-68
2021/04/29 01:38:10;;;;;;;12.00;9.75;;;8.50;94.00;;;;;;5028990;28;20132;-68
2021/04/29 01:40:38;;;;;;;11.43;9.75;;;8.50;93.90;;;;;;5029356;28;20045;-68
2021/04/29 01:43:05;;;;;;;13.50;9.75;;;8.60;93.90;;;;;;5026693;28;20069;-68
2021/04/29 01:45:31;;;;;;;13.48;10.13;;;8.70;93.60;;;;;;5029581;28;20984;-68
2021/04/29 01:47:57;;;;;;;17.55;10.52;;;8.60;93.70;;;;;;5027324;28;20049;-68
2021/04/29 01:50:23;;;;;;;15.25;10.38;;;8.60;93.80;;;;;;5026417;28;20053;-68
2021/04/29 01:52:49;;;;;;;11.32;10.13;;;8.60;93.90;;;;;;5029247;28;20041;-68
2021/04/29 01:55:14;;;;;;;14.43;10.65;;;8.60;94.40;;;;;;5026366;28;20041;-68
2021/04/29 01:57:40;;;;;;;15.88;10.50;;;8.50;94.40;;;;;;5042610;28;20566;-67
2021/04/29 02:00:10;;;;;;;15.77;10.07;;;8.50;94.50;;;;;;5025928;28;20719;-68
2021/04/29 02:02:35;;;;;;;18.10;11.05;;;8.50;94.50;;;;;;5028912;28;20492;-68
2021/04/29 02:05:02;;;;;;;19.95;11.38;;;8.50;94.60;;;;;;5028617;28;20029;-68
2021/04/29 02:07:30;;;;;;;12.55;10.40;;;8.50;94.50;;;;;;5027764;28;20777;-68
2021/04/29 02:09:56;;;;;;;14.20;11.35;;;8.50;94.70;;;;;;5027204;28;20522;-68
2021/04/29 02:12:23;;;;;;;18.50;10.55;;;8.50;94.60;;;;;;5028365;28;20049;-68
2021/04/29 02:14:53;;;;;;;19.98;11.00;;;8.50;94.60;;;;;;5042622;28;20577;-68
2021/04/29 02:17:24;;;;;;;16.88;11.38;;;8.50;94.50;;;;;;5026114;28;20138;-68
2021/04/29 02:19:51;;;;;;;13.82;10.38;;;8.50;94.40;;;;;;5029134;28;20232;-68
2021/04/29 02:22:17;;;;;;;15.48;10.88;;;8.50;94.40;;;;;;5026559;28;20049;-68
2021/04/29 02:24:46;;;;;;;14.90;10.85;;;8.50;94.50;;;;;;5028956;28;20103;-68
2021/04/29 02:27:13;;;;;;;12.68;10.57;;;8.50;94.40;;;;;;5025955;28;20125;-67
2021/04/29 02:29:42;;;;;;;18.10;10.95;;;8.50;94.50;;;;;;5026613;28;20049;-68
2021/04/29 02:32:08;;;;;;;16.45;10.95;;;8.40;94.40;;;;;;5027133;28;20039;-68
2021/04/29 02:34:34;;;;;;;17.90;11.65;;;8.40;94.50;;;;;;5029163;28;20030;-68
2021/04/29 02:37:00;;;;;;;14.00;11.65;;;8.30;94.60;;;;;;5029488;28;20041;-68
2021/04/29 02:39:28;;;;;;;17.52;12.00;;;8.20;94.70;;;;;;5029223;28;20041;-68
2021/04/29 02:41:53;;;;;;;13.05;11.65;;;8.20;95.00;;;;;;5028807;28;20041;-68
2021/04/29 02:44:19;;;;;;;16.85;11.98;;;8.30;95.20;;;;;;5028688;28;20033;-67
2021/04/29 02:46:45;;;;;;;13.73;11.57;;;8.30;95.10;;;;;;5028326;28;20041;-68
2021/04/29 02:49:11;;;;;;;17.52;12.45;;;8.30;95.20;;;;;;5028500;28;20037;-68
2021/04/29 02:51:38;;;;;;;19.00;12.73;;;8.20;95.30;;;;;;5027670;28;20095;-67
2021/04/29 02:54:06;;;;;;;16.42;12.65;;;8.20;95.30;;;;;;5029018;28;20041;-68
2021/04/29 02:56:33;;;;;;;19.33;12.52;;;8.30;95.50;;;;;;5028591;28;20038;-68
2021/04/29 02:58:59;;;;;;;19.70;12.38;;;8.30;95.40;;;;;;5028163;28;20076;-68
2021/04/29 03:01:25;;;;;;;18.83;12.82;;;8.20;95.60;;;;;;5029355;28;20408;-67
2021/04/29 03:03:51;;;;;;;19.35;12.48;;;8.20;95.60;;;;;;5028714;28;20048;-67
2021/04/29 03:06:17;;;;;;;15.95;11.93;;;8.20;95.70;;;;;;5028396;28;20111;-67
2021/04/29 03:08:43;;;;;;;16.73;12.38;;;8.20;95.70;;;;;;5028973;28;20495;-67
2021/04/29 03:11:08;;;;;;;18.00;12.65;;;8.20;95.80;;;;;;5028493;28;20037;-67
2021/04/29 03:13:34;;;;;;;21.17;14.60;;;8.00;96.10;;;;;;5028140;28;20065;-67
2021/04/29 03:16:00;;;;;;;23.55;13.65;;;8.00;96.20;;;;;;5026904;28;20116;-67
2021/04/29 03:18:25;;;;;;;19.90;13.20;;;8.10;96.50;;;;;;5028696;28;20037;-68
2021/04/29 03:20:51;;;;;;;22.00;14.05;;;8.00;96.60;;;;;;5027690;28;20565;-67
2021/04/29 03:23:17;;;;;;;24.50;14.82;;;8.00;96.90;;;;;;5027970;28;20069;-67
2021/04/29 03:25:44;;;;;;;22.70;15.57;;;8.00;97.30;;;;;;5025923;28;20095;-67
2021/04/29 03:28:10;;;;;;;18.92;14.65;;;8.00;97.50;;;;;;5028238;28;20077;-67
2021/04/29 03:30:36;;;;;;;20.10;15.45;;;8.00;97.60;;;;;;5028898;28;20746;-67
2021/04/29 03:33:01;;;;;;;35.53;18.83;;;8.00;98.10;;;;;;5027201;28;20498;-68
2021/04/29 03:35:27;;;;;;;20.35;15.32;;;8.00;98.20;;;;;;5026842;28;20376;-67
2021/04/29 03:37:53;;;;;;;22.35;16.08;;;8.00;98.20;;;;;;5027486;28;20099;-67
2021/04/29 03:40:19;;;;;;;21.88;16.17;;;8.10;98.30;;;;;;5028476;28;20483;-67
2021/04/29 03:42:44;;;;;;;20.63;16.10;;;8.10;98.30;;;;;;5028624;28;20112;-67
2021/04/29 03:45:11;;;;;;;18.45;16.50;;;8.10;98.30;;;;;;5027739;28;20045;-67
2021/04/29 03:47:37;;;;;;;18.92;16.40;;;8.20;98.20;;;;;;5027783;28;20092;-67
2021/04/29 03:50:04;;;;;;;24.67;17.17;;;8.20;98.20;;;;;;5022479;28;20052;-67
2021/04/29 03:52:30;;;;;;;21.27;16.50;;;8.10;98.30;;;;;;5027471;28;20037;-67
2021/04/29 03:54:55;;;;;;;26.10;16.52;;;8.10;98.30;;;;;;5028235;28;20095;-67
2021/04/29 03:57:21;;;;;;;22.05;16.17;;;8.00;98.40;;;;;;5026291;28;20455;-67
2021/04/29 03:59:47;;;;;;;20.70;16.38;;;8.00;98.40;;;;;;5027732;28;20041;-68
2021/04/29 04:02:12;;;;;;;22.33;16.08;;;8.00;98.40;;;;;;5026617;28;20036;-67
2021/04/29 04:04:38;;;;;;;25.73;16.52;;;8.00;98.50;;;;;;5027582;28;20038;-68
2021/04/29 04:07:04;;;;;;;20.05;15.02;;;7.90;98.50;;;;;;5027125;28;20386;-67
2021/04/29 04:09:29;;;;;;;22.80;16.88;;;7.90;98.50;;;;;;5025325;28;20157;-68
2021/04/29 04:11:55;;;;;;;22.77;16.65;;;7.90;98.40;;;;;;5027303;28;20087;-67
2021/04/29 04:14:21;;;;;;;19.83;15.75;;;7.90;98.40;;;;;;5027997;28;20168;-67
2021/04/29 04:16:46;;;;;;;23.33;16.98;;;7.90;98.30;;;;;;5026613;28;20487;-67
2021/04/29 04:19:12;;;;;;;21.55;17.65;;;7.80;98.40;;;;;;5028523;28;20680;-67
2021/04/29 04:21:38;;;;;;;23.75;17.17;;;7.80;98.50;;;;;;5028807;28;20072;-67
2021/04/29 04:24:04;;;;;;;24.05;17.67;;;7.80;98.70;;;;;;5028065;28;20095;-68
2021/04/29 04:26:30;;;;;;;25.92;17.35;;;7.70;98.60;;;;;;5028064;28;20099;-67
2021/04/29 04:28:55;;;;;;;20.67;17.52;;;7.80;98.80;;;;;;5027425;28;20049;-67
2021/04/29 04:31:21;;;;;;;20.65;17.50;;;7.80;98.70;;;;;;5028482;28;20072;-67
2021/04/29 04:33:49;;;;;;;22.63;17.48;;;7.80;98.70;;;;;;5026481;28;20399;-67
2021/04/29 04:36:14;;;;;;;24.85;18.10;;;7.80;98.80;;;;;;5027965;28;20052;-68
2021/04/29 04:38:40;;;;;;;29.40;19.10;;;7.80;98.60;;;;;;5026630;28;20038;-68
2021/04/29 04:41:05;;;;;;;23.50;17.52;;;7.80;98.70;;;;;;5028747;28;20669;-68
2021/04/29 04:43:32;;;;;;;26.92;17.48;;;7.80;98.50;;;;;;5027632;28;20041;-67
2021/04/29 04:45:57;;;;;;;25.38;17.65;;;7.80;98.60;;;;;;5028317;28;20075;-68
2021/04/29 04:48:23;;;;;;;23.00;17.77;;;7.80;98.70;;;;;;5026923;28;20464;-67
2021/04/29 04:50:52;;;;;;;21.08;17.70;;;7.90;98.50;;;;;;5026648;28;20033;-68
2021/04/29 04:53:17;;;;;;;23.73;18.15;;;7.80;98.50;;;;;;5027190;28;20068;-68
2021/04/29 04:55:47;;;;;;;21.60;17.70;;;7.70;98.50;;;;;;5026991;28;20755;-68
2021/04/29 04:58:14;;;;;;;24.08;17.20;;;7.80;98.70;;;;;;5021089;28;20033;-67
2021/04/29 05:00:40;;;;;;;21.67;16.83;;;7.80;98.60;;;;;;5025851;28;20053;-67
2021/04/29 05:03:06;;;;;;;20.95;16.80;;;7.90;98.60;;;;;;5026853;28;20053;-68
2021/04/29 05:05:32;;;;;;;22.83;17.33;;;7.90;98.60;;;;;;5027715;28;21069;-67
2021/04/29 05:08:01;;;;;;;20.88;16.02;;;8.00;98.70;;;;;;5026285;28;20063;-67
2021/04/29 05:10:31;;;;;;;18.85;16.17;;;8.10;98.70;;;;;;5026536;28;20463;-67
2021/04/29 05:12:57;;;;;;;24.23;15.90;;;8.10;98.70;;;;;;5023949;28;20045;-68
2021/04/29 05:15:23;;;;;;;22.98;17.50;;;8.20;98.60;;;;;;5024434;28;20034;-67
2021/04/29 05:17:52;;;;;;;19.33;16.35;;;8.20;98.60;;;;;;5029856;28;20099;-67
2021/04/29 05:20:18;;;;;;;22.98;16.58;;;8.30;98.60;;;;;;5028996;28;20092;-67
2021/04/29 05:22:43;;;;;;;20.13;15.55;;;8.30;98.50;;;;;;5031384;28;20419;-67
2021/04/29 05:25:09;;;;;;;27.00;18.08;;;8.40;98.60;;;;;;5031018;28;20045;-67
2021/04/29 05:27:36;;;;;;;20.92;17.73;;;8.50;98.60;;;;;;5030765;28;20080;-68
2021/04/29 05:30:03;;;;;;;21.58;17.02;;;8.60;98.50;;;;;;5028127;28;20464;-68
2021/04/29 05:32:29;;;;;;;21.40;17.20;;;8.80;98.30;;;;;;5030854;28;20049;-68
2021/04/29 05:34:54;;;;;;;22.98;16.58;;;9.10;97.90;;;;;;5026719;28;20095;-68
2021/04/29 05:37:20;;;;;;;20.05;15.70;;;9.40;97.60;;;;;;5026909;28;20037;-68
2021/04/29 05:39:46;;;;;;;19.65;15.50;;;9.80;97.00;;;;;;5030301;28;20036;-68
2021/04/29 05:42:11;;;;;;;24.60;18.13;;;10.00;96.30;;;;;;5029717;28;20041;-68
2021/04/29 05:44:37;;;;;;;25.58;17.77;;;10.10;96.10;;;;;;5030424;28;20472;-68
2021/04/29 05:47:03;;;;;;;26.95;18.75;;;9.90;95.90;;;;;;5030387;28;20768;-68
2021/04/29 05:49:28;;;;;;;20.77;18.58;;;9.80;96.10;;;;;;5029051;28;20111;-68
2021/04/29 05:51:54;;;;;;;25.85;17.73;;;9.70;96.50;;;;;;5027555;28;20118;-68
2021/04/29 05:54:20;;;;;;;20.60;16.88;;;9.70;96.80;;;;;;5027431;28;20060;-68
2021/04/29 05:56:46;;;;;;;22.55;18.80;;;9.70;96.80;;;;;;5029323;28;20034;-68
2021/04/29 05:59:12;;;;;;;22.10;18.25;;;9.70;96.90;;;;;;5027950;28;20780;-68
2021/04/29 06:01:37;;;;;;;22.88;17.80;;;9.70;96.80;;;;;;5024321;28;20057;-68
2021/04/29 06:04:03;;;;;;;20.05;17.95;;;10.00;96.90;;;;;;5026909;28;20447;-68
2021/04/29 06:06:29;;;;;;;24.92;18.33;;;10.10;96.60;;;;;;5026747;28;20045;-67
2021/04/29 06:08:55;;;;;;;22.40;18.30;;;10.10;96.20;;;;;;5030708;28;20049;-67
2021/04/29 06:11:20;;;;;;;23.48;18.48;;;10.10;96.20;;;;;;5025627;28;20041;-68
2021/04/29 06:13:46;;;;;;;19.52;17.50;;;10.10;96.00;;;;;;5030581;28;20786;-67
2021/04/29 06:16:14;;;;;;;22.13;18.83;;;10.00;96.20;;;;;;5022086;28;20041;-67
2021/04/29 06:18:43;;;;;;;25.50;20.33;;;10.00;96.20;;;;;;5027402;28;20065;-67
2021/04/29 06:21:09;;;;;;;25.48;19.92;;;10.00;95.90;;;;;;5025010;28;20503;-67
2021/04/29 06:23:38;;;;;;;25.77;20.00;;;10.00;96.20;;;;;;5025621;28;20053;-67
2021/04/29 06:26:04;;;;;;;31.00;20.67;;;10.00;96.20;;;;;;5025552;28;20112;-67
2021/04/29 06:28:30;;;;;;;25.55;20.08;;;10.00;96.10;;;;;;5026192;28;20061;-67
2021/04/29 06:30:56;;;;;;;25.75;20.98;;;10.00;96.00;;;;;;5026259;28;20693;-67
2021/04/29 06:33:24;;;;;;;29.75;20.95;;;10.10;96.10;;;;;;5027398;28;20083;-67
2021/04/29 06:35:54;;;;;;;27.50;20.67;;;10.10;95.80;;;;;;5023887;28;20025;-67
2021/04/29 06:38:20;;;;;;;25.92;20.38;;;10.10;96.00;;;;;;5026346;28;20136;-67
2021/04/29 06:40:47;;;;;;;25.92;19.88;;;10.10;96.00;;;;;;5024387;28;20117;-67
2021/04/29 06:43:13;;;;;;;28.75;19.88;;;10.20;95.90;;;;;;5024713;28;20068;-67
2021/04/29 06:45:40;;;;;;;26.77;22.50;;;10.20;95.70;;;;;;5026191;28;20041;-67
2021/04/29 06:48:08;;;;;;;27.58;21.15;;;10.10;95.80;;;;;;5027165;28;20048;-67
2021/04/29 06:50:35;;;;;;;24.30;19.95;;;10.10;95.90;;;;;;5024596;28;20034;-67
2021/04/29 06:53:01;;;;;;;26.48;21.45;;;10.20;95.80;;;;;;5027770;28;20045;-67
2021/04/29 06:55:27;;;;;;;25.08;21.33;;;10.20;95.70;;;;;;5026821;28;20467;-67
2021/04/29 06:57:52;;;;;;;23.33;20.08;;;10.20;95.90;;;;;;5025934;28;20049;-67
2021/04/29 07:00:19;;;;;;;23.77;20.33;;;10.30;95.80;;;;;;5026848;28;20049;-67
2021/04/29 07:02:45;;;;;;;24.60;20.05;;;10.30;95.90;;;;;;5025225;28;20117;-67
2021/04/29 07:05:11;;;;;;;24.83;20.73;;;10.30;96.20;;;;;;5024153;28;20045;-67
2021/04/29 07:07:37;;;;;;;22.05;19.23;;;10.30;95.80;;;;;;5024627;28;20114;-67
2021/04/29 07:10:04;;;;;;;25.15;19.38;;;10.40;95.70;;;;;;5027796;28;20492;-67
2021/04/29 07:12:30;;;;;;;22.58;18.95;;;10.40;95.60;;;;;;5024835;28;20060;-67
2021/04/29 07:14:55;;;;;;;27.15;18.48;;;10.40;95.50;;;;;;5027209;28;20729;-67
2021/04/29 07:17:21;;;;;;;20.63;18.45;;;10.50;95.30;;;;;;5027287;28;20037;-67
2021/04/29 07:19:47;;;;;;;27.70;19.08;;;10.60;95.20;;;;;;5024972;28;20048;-67
2021/04/29 07:22:12;;;;;;;25.65;19.17;;;10.60;95.10;;;;;;5026084;28;20063;-67
2021/04/29 07:24:38;;;;;;;22.08;18.80;;;10.60;95.20;;;;;;5025197;28;20494;-67
2021/04/29 07:27:04;;;;;;;22.50;18.77;;;10.60;95.10;;;;;;5026242;28;20506;-67
2021/04/29 07:29:32;;;;;;;27.63;20.67;;;10.50;95.20;;;;;;5025836;28;20064;-67
2021/04/29 07:31:59;;;;;;;23.42;19.75;;;10.40;95.40;;;;;;5024372;28;20046;-67
2021/04/29 07:34:24;;;;;;;23.55;19.15;;;10.40;95.60;;;;;;5026752;28;20048;-67
2021/04/29 07:36:50;;;;;;;21.45;18.27;;;10.40;95.60;;;;;;5023409;28;20045;-67
2021/04/29 07:39:16;;;;;;;33.40;20.88;;;10.40;95.80;;;;;;5023015;28;20373;-67
2021/04/29 07:41:41;;;;;;;22.70;19.05;;;10.40;95.90;;;;;;5025904;28;20037;-67
2021/04/29 07:44:07;;;;;;;23.40;19.83;;;10.50;95.90;;;;;;5024141;28;20512;-67
2021/04/29 07:46:33;;;;;;;24.35;18.50;;;10.60;95.80;;;;;;5025442;28;20063;-67
2021/04/29 07:48:59;;;;;;;24.15;18.70;;;10.70;95.40;;;;;;5024748;28;20483;-67
2021/04/29 07:51:25;;;;;;;22.15;19.35;;;10.80;95.30;;;;;;5026710;28;20408;-67
2021/04/29 07:53:51;;;;;;;24.42;18.20;;;10.80;95.50;;;;;;5024049;28;20475;-67
2021/04/29 07:56:17;;;;;;;26.67;20.27;;;10.80;95.60;;;;;;5027353;28;20045;-67
2021/04/29 07:58:43;;;;;;;31.95;21.17;;;10.80;95.90;;;;;;5025084;28;20038;-67
2021/04/29 08:01:09;;;;;;;24.60;19.75;;;10.90;96.20;;;;;;5026380;28;20095;-67
2021/04/29 08:03:35;;;;;;;29.63;19.60;;;11.00;96.20;;;;;;5019516;28;20065;-67
2021/04/29 08:06:01;;;;;;;24.20;20.08;;;11.00;96.20;;;;;;5023079;28;20540;-67
2021/04/29 08:08:26;;;;;;;24.02;20.15;;;11.00;96.30;;;;;;5025774;28;20033;-67
2021/04/29 08:10:52;;;;;;;26.25;20.40;;;11.10;96.30;;;;;;5026380;28;20472;-67
2021/04/29 08:13:18;;;;;;;28.15;20.67;;;11.00;96.50;;;;;;5024044;28;20120;-67
2021/04/29 08:15:44;;;;;;;22.40;19.83;;;10.90;96.50;;;;;;5025951;28;20483;-67
2021/04/29 08:18:10;;;;;;;28.98;21.88;;;10.90;96.60;;;;;;5025341;28;20046;-67
2021/04/29 08:20:38;;;;;;;22.40;19.60;;;10.80;96.70;;;;;;5027445;28;20049;-67
2021/04/29 08:23:04;;;;;;;25.73;19.15;;;10.80;96.90;;;;;;5025680;28;20033;-68
2021/04/29 08:25:30;;;;;;;23.70;19.15;;;10.70;97.00;;;;;;5027060;28;20041;-68
2021/04/29 08:27:56;;;;;;;25.73;19.00;;;10.70;97.10;;;;;;5024913;28;20102;-67
2021/04/29 08:30:26;;;;;;;22.92;20.13;;;10.70;97.40;;;;;;5026230;28;20061;-67
2021/04/29 08:32:56;;;;;;;29.42;19.60;;;10.70;97.40;;;;;;5026431;28;20045;-67
2021/04/29 08:35:23;;;;;;;29.15;20.77;;;10.70;97.70;;;;;;5024246;28;20033;-67
2021/04/29 08:37:49;;;;;;;28.90;22.02;;;10.70;98.20;;;;;;5025213;28;20037;-67
2021/04/29 08:40:15;;;;;;;30.08;21.88;;;10.50;98.20;;;;;;5023841;28;20084;-67
2021/04/29 08:42:42;;;;;;;34.58;21.55;;;10.40;98.30;;;;;;5026442;28;20042;-67
2021/04/29 08:45:10;;;;;;;27.05;21.75;;;10.40;98.30;;;;;;5029336;28;20518;-67
2021/04/29 08:47:37;;;;;;;25.55;20.45;;;10.40;98.60;;;;;;5030052;28;20045;-68
2021/04/29 08:50:06;;;;;;;26.20;21.98;;;10.40;98.70;;;;;;5027632;28;20045;-67
2021/04/29 08:52:32;;;;;;;29.05;22.38;;;10.30;99.10;;;;;;5029445;28;20037;-67
2021/04/29 08:54:58;;;;;;;26.73;22.38;;;10.20;99.10;;;;;;5027032;28;20068;-67
2021/04/29 08:57:28;;;;;;;29.58;21.75;;;10.20;99.10;;;;;;5030527;28;20175;-67
2021/04/29 08:59:54;;;;;;;25.70;21.55;;;10.20;99.10;;;;;;5029515;28;20040;-67
2021/04/29 09:02:36;;;;;;;28.52;21.30;;;10.10;99.10;;;;;;5029498;28;20050;-67
2021/04/29 09:05:18;;;;;;;25.73;20.38;;;10.10;99.20;;;;;;5040693;28;20052;-67
2021/04/29 09:07:53;;;;;;;27.77;19.88;;;10.10;99.30;;;;;;5026895;28;20033;-67
2021/04/29 09:10:24;;;;;;;27.95;21.02;;;10.10;99.30;;;;;;5029325;28;20041;-67
2021/04/29 09:12:50;;;;;;;24.20;19.13;;;10.00;99.30;;;;;;5028435;28;20039;-67
2021/04/29 09:15:31;;;;;;;25.20;20.92;;;10.00;99.50;;;;;;5021228;28;20046;-67
2021/04/29 09:18:14;;;;;;;25.67;22.17;;;10.00;99.40;;;;;;5030097;28;20125;-67
2021/04/29 09:20:52;;;;;;;30.95;23.75;;;10.00;99.70;;;;;;5029315;28;20072;-67
2021/04/29 09:23:21;;;;;;;26.98;23.10;;;10.00;99.90;;;;;;5030613;28;20037;-67
2021/04/29 09:25:58;;;;;;;29.48;23.73;;;10.00;99.80;;;;;;5028896;28;20068;-67
2021/04/29 09:28:39;;;;;;;27.98;23.77;;;10.00;99.90;;;;;;5028901;28;20881;-67
2021/04/29 09:31:08;;;;;;;32.80;25.65;;;10.00;99.90;;;;;;5027986;28;20042;-67
2021/04/29 09:33:36;;;;;;;30.25;24.13;;;10.00;99.90;;;;;;5029718;28;20041;-67
2021/04/29 09:36:03;;;;;;;32.08;24.58;;;9.90;99.90;;;;;;5027020;28;20037;-67
2021/04/29 09:38:34;;;;;;;32.03;26.42;;;9.90;99.90;;;;;;5024852;28;20038;-67
2021/04/29 09:41:00;;;;;;;42.47;27.95;;;10.00;99.90;;;;;;5043940;28;20041;-66
2021/04/29 09:43:26;;;;;;;34.45;26.95;;;9.90;99.90;;;;;;5028824;28;20045;-66
2021/04/29 09:46:01;;;;;;;39.53;27.38;;;9.90;99.90;;;;;;5029365;28;20041;-67
2021/04/29 09:48:38;;;;;;;37.05;27.73;;;9.90;99.90;;;;;;5028361;28;20045;-67
2021/04/29 09:51:07;;;;;;;43.63;29.77;;;10.00;99.90;;;;;;5027575;28;20046;-67
2021/04/29 09:53:41;;;;;;;35.53;29.52;;;9.90;99.90;;;;;;5027876;28;20037;-67
2021/04/29 09:56:12;;;;;;;39.97;30.55;;;9.90;99.90;;;;;;5029175;28;20041;-66
2021/04/29 09:58:44;;;;;;;34.28;26.90;;;9.90;99.90;;;;;;5028828;28;20108;-67
2021/04/29 10:01:11;;;;;;;37.65;29.83;;;9.90;99.90;;;;;;5024250;28;20236;-67
2021/04/29 10:03:38;;;;;;;35.75;30.10;;;9.90;99.90;;;;;;5026097;28;20041;-67
2021/04/29 10:06:05;;;;;;;39.05;31.08;;;9.90;99.90;;;;;;5029383;28;20046;-67
2021/04/29 10:08:34;;;;;;;35.80;30.30;;;9.90;99.90;;;;;;5027868;28;20065;-67
2021/04/29 10:11:02;;;;;;;36.80;31.17;;;9.90;99.90;;;;;;5027497;28;20041;-67
2021/04/29 10:13:32;;;;;;;37.03;31.17;;;10.00;99.90;;;;;;5027941;28;20045;-67
2021/04/29 10:16:00;;;;;;;36.72;32.42;;;10.00;99.90;;;;;;5027148;28;20042;-67
2021/04/29 10:18:29;;;;;;;34.88;28.88;;;10.10;99.90;;;;;;5028608;28;20511;-67
2021/04/29 10:20:58;;;;;;;34.58;30.58;;;10.10;99.90;;;;;;5025609;28;20087;-67
2021/04/29 10:23:24;;;;;;;34.25;29.40;;;10.10;99.90;;;;;;5028726;28;20038;-67
2021/04/29 10:25:50;;;;;;;37.95;30.58;;;10.00;99.90;;;;;;5026177;28;20051;-67
2021/04/29 10:28:38;;;;;;;34.45;30.75;;;10.10;99.90;;;;;;5027448;28;20042;-67
2021/04/29 10:31:24;;;;;;;37.00;27.63;;;10.10;99.90;;;;;;5028120;28;20038;-67
2021/04/29 10:34:03;;;;;;;33.10;27.25;;;10.20;99.90;;;;;;5028102;28;20045;-66
2021/04/29 10:36:41;;;;;;;31.42;27.20;;;10.20;99.90;;;;;;5026814;28;20034;-67
2021/04/29 10:39:18;;;;;;;38.92;30.13;;;10.20;99.90;;;;;;5025843;28;20045;-67
2021/04/29 10:41:46;;;;;;;34.92;29.55;;;10.10;99.90;;;;;;5027290;28;20415;-67
2021/04/29 10:44:17;;;;;;;36.40;27.77;;;10.10;99.90;;;;;;5027106;28;20041;-67
2021/04/29 10:46:45;;;;;;;34.80;28.55;;;10.10;99.90;;;;;;5025978;28;20037;-67
2021/04/29 10:49:15;;;;;;;30.33;25.88;;;10.10;99.90;;;;;;5026966;28;20038;-67
2021/04/29 10:51:43;;;;;;;32.70;27.15;;;10.10;99.90;;;;;;5028027;28;20041;-66
2021/04/29 10:54:16;;;;;;;32.53;26.73;;;10.10;99.90;;;;;;5025973;28;20048;-67
2021/04/29 10:57:03;;;;;;;32.58;25.33;;;10.10;99.90;;;;;;5026747;28;20060;-67
2021/04/29 10:59:50;;;;;;;37.42;30.65;;;10.10;99.90;;;;;;5025832;28;20132;-67
2021/04/29 11:02:25;;;;;;;28.27;25.10;;;10.10;99.90;;;;;;5026968;28;20063;-67
2021/04/29 11:04:52;;;;;;;32.13;28.58;;;10.00;99.90;;;;;;5028346;28;20045;-67
2021/04/29 11:07:20;;;;;;;32.83;27.15;;;10.00;99.90;;;;;;5027344;28;20034;-67
2021/04/29 11:09:56;;;;;;;29.80;26.75;;;10.20;99.90;;;;;;5028464;28;20407;-67
2021/04/29 11:12:22;;;;;;;30.20;26.35;;;10.10;99.90;;;;;;5043183;28;20507;-67
2021/04/29 11:14:48;;;;;;;34.58;29.38;;;10.00;99.90;;;;;;5026909;28;20036;-67
2021/04/29 11:17:25;;;;;;;38.22;27.17;;;10.00;99.90;;;;;;5027381;28;20117;-67
2021/04/29 11:19:54;;;;;;;29.88;25.48;;;10.00;99.90;;;;;;5023142;28;20045;-67
2021/04/29 11:22:53;;;;;;;24.83;22.20;;;10.00;99.90;;;;;;5027406;28;20033;-67
2021/04/29 11:25:19;;;;;;;24.60;21.88;;;10.00;99.90;;;;;;5021660;28;20037;-67
2021/04/29 11:27:45;;;;;;;30.10;24.80;;;10.00;99.90;;;;;;5024841;28;20825;-67
2021/04/29 11:30:13;;;;;;;32.67;25.17;;;10.00;99.90;;;;;;5023066;28;20077;-67
2021/04/29 11:32:40;;;;;;;26.75;24.02;;;10.00;99.90;;;;;;5024352;28;20037;-67
2021/04/29 11:35:20;;;;;;;31.00;24.65;;;10.00;99.90;;;;;;5024611;28;20053;-67
2021/04/29 11:37:46;;;;;;;26.75;24.00;;;9.90;99.90;;;;;;5025724;28;20026;-67
2021/04/29 11:40:13;;;;;;;24.38;21.70;;;10.00;99.90;;;;;;5025518;28;20029;-67
2021/04/29 11:42:42;;;;;;;24.50;21.98;;;10.00;99.90;;;;;;5026020;28;20045;-67
2021/04/29 11:45:25;;;;;;;24.10;21.65;;;10.00;99.90;;;;;;5024932;28;20040;-67
2021/04/29 11:47:53;;;;;;;26.17;23.20;;;10.00;99.90;;;;;;5023891;28;20049;-67
2021/04/29 11:50:22;;;;;;;26.25;22.52;;;10.00;99.90;;;;;;5025061;28;20025;-67
2021/04/29 11:52:49;;;;;;;24.17;21.67;;;10.00;99.90;;;;;;5048712;28;20092;-67
2021/04/29 11:55:25;;;;;;;22.00;19.80;;;10.00;99.90;;;;;;5030129;28;20063;-67
2021/04/29 11:57:51;;;;;;;23.63;21.33;;;10.00;99.90;;;;;;5030892;28;20052;-67
2021/04/29 12:00:28;;;;;;;23.52;21.23;;;10.00;99.90;;;;;;5030266;28;20037;-67
2021/04/29 12:02:58;;;;;;;24.88;22.33;;;10.10;99.90;;;;;;5028178;28;20071;-67
2021/04/29 12:05:35;;;;;;;21.23;18.92;;;10.00;99.90;;;;;;5027070;28;20106;-67
2021/04/29 12:08:01;;;;;;;20.73;18.80;;;10.10;99.90;;;;;;5025982;28;20041;-67
2021/04/29 12:10:43;;;;;;;24.02;21.52;;;10.10;99.90;;;;;;5024319;28;20457;-67
2021/04/29 12:13:09;;;;;;;20.05;18.15;;;10.00;99.90;;;;;;5025710;28;20042;-67
2021/04/29 12:15:35;;;;;;;23.25;19.95;;;9.90;99.90;;;;;;5022718;28;20403;-67
2021/04/29 12:18:03;;;;;;;16.83;15.23;;;10.00;99.90;;;;;;5024810;28;20053;-67
2021/04/29 12:20:29;;;;;;;20.95;18.98;;;9.90;99.90;;;;;;5028068;28;20044;-67
2021/04/29 12:22:55;;;;;;;20.63;18.73;;;9.90;99.90;;;;;;5029597;28;20040;-67
2021/04/29 12:25:22;;;;;;;20.20;18.42;;;9.90;99.90;;;;;;5028821;28;20029;-67
2021/04/29 12:27:48;;;;;;;22.80;20.40;;;9.90;99.90;;;;;;5030746;28;20037;-67
2021/04/29 12:30:15;;;;;;;21.80;19.73;;;9.90;99.90;;;;;;5029290;28;20165;-67
2021/04/29 12:32:44;;;;;;;24.95;22.42;;;9.90;99.90;;;;;;5028786;28;20471;-67
2021/04/29 12:35:12;;;;;;;21.15;19.15;;;9.90;99.90;;;;;;5031655;28;20041;-67
2021/04/29 12:37:52;;;;;;;23.35;20.95;;;10.00;99.90;;;;;;5027643;28;20034;-67